Time;durP1;ratioP1;P1;durP2;ratioP2;P2;SDS_P1;SDS_P2;PMS_P1;PMS_P2;Temp;Humidity;BMP_temperature;BMP_pressure;BME280_temperature;BME280_humidity;BME280_pressure;Samples;Min_cycle;Max_cycle;Signal;HPM_P1;HPM_P2
2020/12/04 00:02:06;;;;;;;2.87;2.57;;;7.30;99.90;;;;;;5113932;28;20209;-80
2020/12/04 00:04:32;;;;;;;2.90;2.60;;;7.30;99.90;;;;;;5111274;28;20193;-80
2020/12/04 00:07:00;;;;;;;3.00;2.63;;;7.40;99.90;;;;;;5108696;28;20188;-81
2020/12/04 00:09:25;;;;;;;2.60;2.40;;;7.40;99.90;;;;;;5089594;28;20262;-80
2020/12/04 00:11:51;;;;;;;4.43;2.50;;;7.40;99.90;;;;;;5107710;28;20182;-81
2020/12/04 00:14:17;;;;;;;3.40;2.60;;;7.40;99.90;;;;;;5105699;28;20212;-80
2020/12/04 00:16:43;;;;;;;2.50;2.30;;;7.40;99.90;;;;;;5111029;28;20560;-79
2020/12/04 00:19:09;;;;;;;2.57;2.37;;;7.40;99.90;;;;;;5098869;28;20247;-78
2020/12/04 00:21:34;;;;;;;2.80;2.47;;;7.30;99.90;;;;;;5108323;28;20188;-80
2020/12/04 00:24:00;;;;;;;2.80;2.60;;;7.30;99.90;;;;;;5088116;28;20177;-79
2020/12/04 00:26:26;;;;;;;2.70;2.50;;;7.30;99.90;;;;;;5105925;28;20274;-80
2020/12/04 00:28:52;;;;;;;2.70;2.50;;;7.30;99.90;;;;;;5089784;28;20194;-79
2020/12/04 00:31:18;;;;;;;2.67;2.43;;;7.30;99.90;;;;;;5095761;28;20203;-80
2020/12/04 00:33:44;;;;;;;2.60;2.40;;;7.30;99.90;;;;;;5107085;28;20188;-80
2020/12/04 00:36:10;;;;;;;2.87;2.57;;;7.20;99.90;;;;;;5106292;28;20607;-80
2020/12/04 00:38:37;;;;;;;2.70;2.50;;;7.20;99.90;;;;;;5107387;28;20202;-80
2020/12/04 00:41:03;;;;;;;2.70;2.50;;;7.20;99.90;;;;;;5111699;28;20185;-80
2020/12/04 00:43:29;;;;;;;2.43;2.23;;;7.20;99.90;;;;;;5107176;28;20177;-80
2020/12/04 00:45:54;;;;;;;2.63;2.43;;;7.30;99.90;;;;;;5106111;28;20180;-80
2020/12/04 00:48:20;;;;;;;2.60;2.40;;;7.30;99.90;;;;;;5089483;28;20190;-80
2020/12/04 00:50:46;;;;;;;2.50;2.30;;;7.20;99.90;;;;;;5090115;28;20228;-81
2020/12/04 00:53:12;;;;;;;2.87;2.60;;;7.20;99.90;;;;;;5108168;28;20184;-80
2020/12/04 00:55:37;;;;;;;2.67;2.30;;;7.30;99.90;;;;;;5108145;28;20200;-79
2020/12/04 00:58:04;;;;;;;2.20;2.10;;;7.30;99.90;;;;;;5115176;27;20189;-81
2020/12/04 01:00:30;;;;;;;3.23;2.43;;;7.20;99.90;;;;;;5107033;28;20268;-81
2020/12/04 01:02:55;;;;;;;2.17;1.97;;;7.20;99.90;;;;;;5106488;28;20173;-81
2020/12/04 01:05:21;;;;;;;2.03;1.93;;;7.20;99.90;;;;;;5104642;28;20185;-81
2020/12/04 01:07:47;;;;;;;2.00;1.90;;;7.20;99.90;;;;;;5109827;28;20223;-81
2020/12/04 01:10:13;;;;;;;2.10;2.00;;;7.30;99.90;;;;;;5110618;28;20622;-81
2020/12/04 01:12:42;;;;;;;2.40;2.20;;;7.30;99.90;;;;;;5115695;28;20185;-81
2020/12/04 01:15:08;;;;;;;1.97;1.87;;;7.30;99.90;;;;;;5112300;28;20730;-81
2020/12/04 01:17:35;;;;;;;2.80;1.87;;;7.30;99.90;;;;;;5111023;28;20191;-81
2020/12/04 01:20:00;;;;;;;2.37;1.93;;;7.30;99.90;;;;;;5114276;28;20190;-82
2020/12/04 01:22:26;;;;;;;2.07;1.80;;;7.40;99.90;;;;;;5111397;28;20184;-81
2020/12/04 01:24:52;;;;;;;2.20;2.00;;;7.30;99.90;;;;;;5100947;28;20184;-81
2020/12/04 01:27:17;;;;;;;2.10;1.90;;;7.30;99.90;;;;;;5109486;28;20294;-80
2020/12/04 01:29:44;;;;;;;2.70;1.77;;;7.40;99.90;;;;;;5109287;28;20200;-81
2020/12/04 01:32:10;;;;;;;1.67;1.57;;;7.40;99.90;;;;;;5111726;28;20706;-82
2020/12/04 01:34:35;;;;;;;1.97;1.70;;;7.30;99.90;;;;;;5110751;28;20182;-82
2020/12/04 01:37:01;;;;;;;2.27;1.80;;;7.40;99.90;;;;;;5112126;28;20177;-81
2020/12/04 01:39:27;;;;;;;2.30;2.00;;;7.40;99.90;;;;;;5110995;28;20616;-80
2020/12/04 01:41:52;;;;;;;2.07;1.97;;;7.40;99.90;;;;;;5111879;28;20192;-80
2020/12/04 01:44:18;;;;;;;1.80;1.70;;;7.50;99.90;;;;;;5094747;28;20197;-81
2020/12/04 01:46:44;;;;;;;2.10;2.00;;;7.40;99.90;;;;;;5095148;28;20325;-81
2020/12/04 01:49:09;;;;;;;1.83;1.73;;;7.50;99.90;;;;;;5094857;28;20291;-82
2020/12/04 01:51:36;;;;;;;2.40;1.87;;;7.50;99.90;;;;;;5111353;28;20182;-81
2020/12/04 01:54:03;;;;;;;1.53;1.43;;;7.50;99.90;;;;;;5110782;28;20326;-81
2020/12/04 01:56:37;;;;;;;2.00;1.90;;;7.50;99.90;;;;;;5113229;28;20178;-81
2020/12/04 01:59:04;;;;;;;1.87;1.77;;;7.50;99.90;;;;;;5116745;28;20649;-80
2020/12/04 02:01:34;;;;;;;3.80;2.37;;;7.50;99.90;;;;;;5114750;28;20196;-82
2020/12/04 02:04:00;;;;;;;1.73;1.63;;;7.50;99.90;;;;;;5116469;28;20170;-82
2020/12/04 02:06:52;;;;;;;2.00;1.90;;;7.60;99.90;;;;;;5114776;28;20177;-81
2020/12/04 02:09:23;;;;;;;2.10;1.97;;;7.60;99.90;;;;;;5114089;28;20197;-81
2020/12/04 02:11:50;;;;;;;2.23;1.80;;;7.60;99.90;;;;;;5116249;28;20256;-82
2020/12/04 02:14:17;;;;;;;2.17;1.97;;;7.70;99.90;;;;;;5114635;28;20176;-82
2020/12/04 02:16:45;;;;;;;2.30;2.20;;;7.70;99.90;;;;;;5115153;28;20233;-81
2020/12/04 02:19:11;;;;;;;2.57;2.10;;;7.80;99.90;;;;;;5114165;28;20285;-81
2020/12/04 02:21:37;;;;;;;2.00;1.80;;;7.80;99.90;;;;;;5115880;28;20185;-81
2020/12/04 02:24:04;;;;;;;1.93;1.80;;;7.80;99.90;;;;;;5101317;28;20243;-81
2020/12/04 02:26:30;;;;;;;2.37;1.67;;;7.80;99.90;;;;;;5114298;28;20193;-82
2020/12/04 02:28:56;;;;;;;1.60;1.50;;;7.80;99.90;;;;;;5115808;28;20670;-82
2020/12/04 02:31:21;;;;;;;1.70;1.60;;;7.80;99.90;;;;;;5094059;28;20214;-81
2020/12/04 02:33:48;;;;;;;1.70;1.60;;;7.90;99.90;;;;;;5106586;28;20257;-81
2020/12/04 02:36:14;;;;;;;1.67;1.57;;;7.90;99.90;;;;;;5095945;28;20179;-80
2020/12/04 02:38:41;;;;;;;1.93;1.70;;;7.90;99.90;;;;;;5113614;28;20200;-80
2020/12/04 02:41:07;;;;;;;1.70;1.60;;;7.90;99.90;;;;;;5115196;28;20665;-83
2020/12/04 02:43:33;;;;;;;1.60;1.50;;;7.90;99.90;;;;;;5115129;28;20529;-81
2020/12/04 02:45:59;;;;;;;2.53;1.70;;;7.90;99.90;;;;;;5114364;28;20177;-80
2020/12/04 02:48:25;;;;;;;1.70;1.60;;;7.90;99.90;;;;;;5114060;28;20189;-81
2020/12/04 02:50:50;;;;;;;1.80;1.70;;;7.90;99.90;;;;;;5113500;28;20208;-80
2020/12/04 02:53:16;;;;;;;1.50;1.40;;;7.80;99.90;;;;;;5113800;28;20178;-81
2020/12/04 02:55:41;;;;;;;2.20;1.53;;;7.90;99.90;;;;;;5114971;28;20185;-81
2020/12/04 02:58:07;;;;;;;1.70;1.60;;;7.80;99.90;;;;;;5104171;28;20616;-80
2020/12/04 03:00:33;;;;;;;1.80;1.47;;;7.80;99.90;;;;;;5101207;28;20191;-81
2020/12/04 03:02:58;;;;;;;1.50;1.40;;;7.80;99.90;;;;;;5113291;28;20241;-80
2020/12/04 03:05:24;;;;;;;1.63;1.30;;;7.80;99.90;;;;;;5114647;28;20960;-80
2020/12/04 03:07:50;;;;;;;4.10;1.57;;;7.80;99.90;;;;;;5114890;28;20686;-80
2020/12/04 03:10:16;;;;;;;2.63;1.50;;;7.80;99.90;;;;;;5109845;28;20734;-80
2020/12/04 03:12:42;;;;;;;2.10;1.53;;;7.80;99.90;;;;;;5112273;28;20181;-81
2020/12/04 03:15:08;;;;;;;1.43;1.30;;;7.80;99.90;;;;;;5111908;28;20540;-81
2020/12/04 03:17:34;;;;;;;1.70;1.50;;;7.80;99.90;;;;;;5109457;28;20183;-79
2020/12/04 03:20:00;;;;;;;2.30;1.30;;;7.90;99.90;;;;;;5107275;28;20188;-79
2020/12/04 03:22:26;;;;;;;1.70;1.40;;;7.90;99.90;;;;;;5114844;28;20185;-79
2020/12/04 03:24:52;;;;;;;1.47;1.30;;;8.00;99.90;;;;;;5097776;28;20193;-79
2020/12/04 03:27:19;;;;;;;2.80;1.57;;;8.00;99.90;;;;;;5094597;28;20190;-79
2020/12/04 03:29:47;;;;;;;1.63;1.30;;;8.00;99.90;;;;;;5101482;28;20205;-80
2020/12/04 03:32:13;;;;;;;1.43;1.23;;;8.00;99.90;;;;;;5092958;28;20177;-82
2020/12/04 03:34:38;;;;;;;1.87;1.37;;;8.00;99.90;;;;;;5108704;28;20176;-79
2020/12/04 03:37:04;;;;;;;1.33;1.20;;;7.90;99.90;;;;;;5113361;28;20542;-79
2020/12/04 03:39:29;;;;;;;1.13;1.03;;;7.90;99.90;;;;;;5113592;28;20291;-79
2020/12/04 03:41:55;;;;;;;1.70;1.20;;;8.00;99.90;;;;;;5114816;28;20280;-80
2020/12/04 03:44:21;;;;;;;1.30;1.20;;;8.00;99.90;;;;;;5113121;28;20193;-80
2020/12/04 03:46:49;;;;;;;1.77;1.30;;;8.00;99.90;;;;;;5098307;28;20547;-83
2020/12/04 03:49:16;;;;;;;3.30;1.27;;;8.00;99.90;;;;;;5101871;28;20208;-79
2020/12/04 03:51:45;;;;;;;2.57;1.33;;;8.00;99.90;;;;;;5113614;28;20762;-79
2020/12/04 03:54:11;;;;;;;2.43;1.30;;;8.10;99.90;;;;;;5113785;28;20211;-79
2020/12/04 03:56:38;;;;;;;2.03;1.30;;;8.10;99.90;;;;;;5096155;28;20182;-80
2020/12/04 03:59:03;;;;;;;2.93;1.70;;;8.10;99.90;;;;;;5114610;28;20193;-79
2020/12/04 04:01:30;;;;;;;2.70;1.70;;;8.10;99.90;;;;;;5112791;28;20225;-79
2020/12/04 04:03:56;;;;;;;3.23;1.33;;;8.10;99.90;;;;;;5114124;28;20181;-80
2020/12/04 04:06:21;;;;;;;4.13;1.23;;;8.10;99.90;;;;;;5103811;28;20196;-82
2020/12/04 04:08:47;;;;;;;3.53;1.50;;;8.20;99.90;;;;;;5096622;28;20635;-79
2020/12/04 04:11:12;;;;;;;3.23;1.40;;;8.20;99.90;;;;;;5108220;28;20241;-81
2020/12/04 04:13:38;;;;;;;3.47;1.40;;;8.10;99.90;;;;;;5096670;28;20196;-79
2020/12/04 04:16:05;;;;;;;3.77;1.50;;;8.10;99.90;;;;;;5093210;28;20199;-80
2020/12/04 04:18:34;;;;;;;4.87;1.53;;;8.00;99.90;;;;;;5113666;28;20195;-80
2020/12/04 04:21:01;;;;;;;5.70;1.20;;;8.00;99.90;;;;;;5113974;28;20172;-82
2020/12/04 04:23:27;;;;;;;3.67;1.63;;;8.00;99.90;;;;;;5114078;28;20544;-82
2020/12/04 04:25:53;;;;;;;2.87;1.43;;;7.90;99.90;;;;;;5114708;28;20501;-82
2020/12/04 04:28:19;;;;;;;3.17;1.40;;;7.90;99.90;;;;;;5112870;28;20713;-81
2020/12/04 04:30:45;;;;;;;1.73;1.10;;;7.90;99.90;;;;;;5113781;28;20209;-81
2020/12/04 04:33:10;;;;;;;3.00;1.50;;;7.90;99.90;;;;;;5096734;28;20187;-81
2020/12/04 04:35:37;;;;;;;3.30;1.20;;;8.00;99.90;;;;;;5115016;28;20176;-81
2020/12/04 04:38:03;;;;;;;3.90;1.73;;;8.00;99.90;;;;;;5096923;28;20196;-81
2020/12/04 04:40:29;;;;;;;2.53;1.10;;;8.00;99.90;;;;;;5081915;28;20653;-80
2020/12/04 04:43:12;;;;;;;4.07;1.50;;;8.00;99.90;;;;;;5115218;28;20189;-81
2020/12/04 04:45:42;;;;;;;3.67;1.40;;;8.00;99.90;;;;;;5094997;28;20531;-81
2020/12/04 04:48:17;;;;;;;1.70;1.10;;;7.80;99.90;;;;;;5109300;28;20595;-80
2020/12/04 04:50:44;;;;;;;4.30;1.47;;;7.70;99.90;;;;;;5114266;28;20196;-82
2020/12/04 04:53:11;;;;;;;1.07;0.90;;;7.70;99.90;;;;;;5112940;28;20178;-81
2020/12/04 04:55:42;;;;;;;2.53;1.30;;;7.60;99.90;;;;;;5114491;28;20258;-82
2020/12/04 04:58:09;;;;;;;1.53;1.33;;;7.50;99.90;;;;;;5115165;28;20252;-82
2020/12/04 05:00:34;;;;;;;1.30;1.20;;;7.40;99.90;;;;;;5114482;28;20184;-81
2020/12/04 05:03:00;;;;;;;3.53;1.10;;;7.30;99.90;;;;;;5095970;28;20548;-80
2020/12/04 05:05:40;;;;;;;1.83;1.20;;;7.20;99.90;;;;;;5110026;28;20310;-81
2020/12/04 05:08:11;;;;;;;1.83;1.20;;;7.20;99.90;;;;;;5092555;28;20646;-81
2020/12/04 05:10:36;;;;;;;2.80;1.50;;;7.10;99.90;;;;;;5110462;28;20205;-80
2020/12/04 05:13:02;;;;;;;2.83;1.33;;;7.00;99.90;;;;;;5112796;28;20190;-80
2020/12/04 05:15:29;;;;;;;2.87;1.37;;;7.00;99.90;;;;;;5112797;28;20242;-80
2020/12/04 05:18:05;;;;;;;3.07;1.47;;;7.00;99.90;;;;;;5113722;28;20203;-82
2020/12/04 05:20:32;;;;;;;2.97;1.43;;;7.10;99.90;;;;;;5114003;28;20156;-82
2020/12/04 05:23:01;;;;;;;1.40;1.20;;;7.20;99.90;;;;;;5114945;28;20186;-82
2020/12/04 05:25:33;;;;;;;4.80;1.17;;;7.20;99.90;;;;;;5114415;28;20574;-83
2020/12/04 05:28:16;;;;;;;2.27;1.30;;;7.30;99.90;;;;;;5117421;28;20169;-83
2020/12/04 05:30:52;;;;;;;2.20;1.23;;;7.30;99.90;;;;;;5113273;28;20275;-84
2020/12/04 05:33:18;;;;;;;2.07;1.37;;;7.40;99.90;;;;;;5096061;28;20215;-82
2020/12/04 05:35:51;;;;;;;1.57;1.43;;;7.40;99.90;;;;;;5079009;28;20204;-83
2020/12/04 05:38:18;;;;;;;2.10;1.33;;;7.40;99.90;;;;;;5117125;28;20182;-84
2020/12/04 05:40:47;;;;;;;1.47;1.30;;;7.40;99.90;;;;;;5115902;28;20178;-82
2020/12/04 05:43:13;;;;;;;1.57;1.17;;;7.50;99.90;;;;;;5098063;28;20464;-80
2020/12/04 05:45:40;;;;;;;4.07;1.30;;;7.50;99.90;;;;;;5115199;28;20177;-81
2020/12/04 05:48:15;;;;;;;4.03;1.50;;;7.50;99.90;;;;;;5116045;28;20178;-81
2020/12/04 05:50:42;;;;;;;1.27;1.00;;;7.50;99.90;;;;;;5115350;28;20679;-81
2020/12/04 05:53:09;;;;;;;2.20;1.20;;;7.50;99.90;;;;;;5096417;28;20217;-84
2020/12/04 05:55:36;;;;;;;1.23;1.20;;;7.50;99.90;;;;;;5113101;28;20204;-82
2020/12/04 05:58:07;;;;;;;2.57;1.30;;;7.50;99.90;;;;;;5122611;28;20178;-80
2020/12/04 06:00:33;;;;;;;3.23;1.30;;;7.50;99.90;;;;;;5106776;28;20187;-74
2020/12/04 06:03:03;;;;;;;2.13;1.47;;;7.50;99.90;;;;;;5099576;28;20181;-80
2020/12/04 06:05:30;;;;;;;1.43;1.20;;;7.50;99.90;;;;;;5116103;28;20657;-82
2020/12/04 06:08:01;;;;;;;1.27;1.10;;;7.50;99.90;;;;;;5079849;28;20284;-81
2020/12/04 06:10:29;;;;;;;3.27;1.40;;;7.50;99.90;;;;;;5099612;28;20550;-81
2020/12/04 06:12:55;;;;;;;2.40;1.30;;;7.50;99.90;;;;;;5106144;28;20179;-80
2020/12/04 06:15:21;;;;;;;3.40;1.40;;;7.50;99.90;;;;;;5115494;28;20222;-80
2020/12/04 06:17:48;;;;;;;2.63;1.20;;;7.60;99.90;;;;;;5117142;28;20201;-80
2020/12/04 06:20:22;;;;;;;1.40;1.30;;;7.60;99.90;;;;;;5100599;28;20234;-83
2020/12/04 06:23:14;;;;;;;2.13;1.47;;;7.50;99.90;;;;;;5117626;28;20261;-82
2020/12/04 06:25:52;;;;;;;2.60;1.30;;;7.50;99.90;;;;;;5118554;28;20186;-80
2020/12/04 06:28:19;;;;;;;2.10;1.50;;;7.40;99.90;;;;;;5118721;28;20184;-80
2020/12/04 06:30:57;;;;;;;1.43;1.33;;;7.50;99.90;;;;;;5120089;28;20201;-80
2020/12/04 06:33:33;;;;;;;1.50;1.40;;;7.50;99.90;;;;;;5112923;28;20261;-79
2020/12/04 06:35:59;;;;;;;1.30;1.20;;;7.40;99.90;;;;;;5111644;28;20182;-80
2020/12/04 06:38:34;;;;;;;1.20;1.10;;;7.50;99.90;;;;;;5118682;28;20186;-81
2020/12/04 06:41:24;;;;;;;2.83;1.70;;;7.50;99.90;;;;;;5118263;28;20180;-80
2020/12/04 06:43:52;;;;;;;2.83;1.60;;;7.40;99.90;;;;;;5119669;28;20166;-81
2020/12/04 06:46:34;;;;;;;1.70;1.60;;;7.40;99.90;;;;;;5119335;28;20186;-81
2020/12/04 06:51:59;;;;;;;2.33;1.73;;;7.40;99.90;;;;;;5122133;28;20183;-81
2020/12/04 06:54:26;;;;;;;1.50;1.40;;;7.40;99.90;;;;;;5104617;28;20180;-81
2020/12/04 06:56:53;;;;;;;1.60;1.50;;;7.40;99.90;;;;;;5105633;28;20688;-81
2020/12/04 06:59:24;;;;;;;1.40;1.30;;;7.40;99.90;;;;;;5121053;28;20192;-80
2020/12/04 07:01:50;;;;;;;1.87;1.40;;;7.30;99.90;;;;;;5119634;28;20185;-80
2020/12/04 07:04:16;;;;;;;1.37;1.27;;;7.30;99.90;;;;;;5120546;28;20185;-80
2020/12/04 07:06:42;;;;;;;1.60;1.30;;;7.40;99.90;;;;;;5118871;28;20176;-81
2020/12/04 07:09:08;;;;;;;1.30;1.20;;;7.40;99.90;;;;;;5102216;28;20185;-81
2020/12/04 07:11:33;;;;;;;1.10;1.10;;;7.40;99.90;;;;;;5118222;28;20193;-82
2020/12/04 07:13:59;;;;;;;1.60;1.10;;;7.30;99.90;;;;;;5116718;28;20186;-80
2020/12/04 07:16:27;;;;;;;3.20;1.30;;;7.30;99.90;;;;;;5098979;28;20706;-80
2020/12/04 07:18:53;;;;;;;2.53;1.23;;;7.30;99.90;;;;;;5091645;28;20250;-81
2020/12/04 07:21:20;;;;;;;1.40;1.23;;;7.30;99.90;;;;;;5099410;28;20186;-81
2020/12/04 07:23:46;;;;;;;2.03;1.30;;;7.30;99.90;;;;;;5123668;28;20180;-80
2020/12/04 07:26:16;;;;;;;1.20;1.00;;;7.30;99.90;;;;;;5120001;28;20193;-80
2020/12/04 07:28:45;;;;;;;1.73;1.17;;;7.30;99.90;;;;;;5117899;28;20184;-82
2020/12/04 07:31:24;;;;;;;1.33;1.23;;;7.40;99.90;;;;;;5116913;28;20205;-82
2020/12/04 07:33:57;;;;;;;1.60;1.17;;;7.40;99.90;;;;;;5108110;28;20257;-81
2020/12/04 07:36:27;;;;;;;2.40;1.00;;;7.40;99.90;;;;;;5094670;28;20178;-81
2020/12/04 07:38:53;;;;;;;1.40;1.30;;;7.40;99.90;;;;;;5103698;28;20592;-81
2020/12/04 07:41:39;;;;;;;1.73;1.47;;;7.30;99.90;;;;;;5115135;28;20185;-80
2020/12/04 07:44:06;;;;;;;1.93;1.60;;;7.30;99.90;;;;;;5115805;28;20675;-80
2020/12/04 07:46:33;;;;;;;1.70;1.60;;;7.10;99.90;;;;;;5115358;28;20201;-81
2020/12/04 07:49:04;;;;;;;1.70;1.60;;;7.20;99.90;;;;;;5113540;28;20316;-80
2020/12/04 07:51:33;;;;;;;2.23;1.37;;;7.20;99.90;;;;;;5114107;28;20212;-81
2020/12/04 07:53:59;;;;;;;2.30;1.63;;;7.20;99.90;;;;;;5114976;28;20173;-81
2020/12/04 07:56:26;;;;;;;1.50;1.40;;;7.20;99.90;;;;;;5116003;28;20261;-80
2020/12/04 07:59:01;;;;;;;5.13;1.50;;;7.30;99.90;;;;;;5097760;28;20179;-81
2020/12/04 08:01:27;;;;;;;1.47;1.30;;;7.30;99.90;;;;;;5110960;28;20527;-81
2020/12/04 08:03:54;;;;;;;1.67;1.57;;;7.30;99.90;;;;;;5094603;28;20185;-80
2020/12/04 08:06:27;;;;;;;1.60;1.50;;;7.40;99.90;;;;;;5113080;28;20195;-81
2020/12/04 08:09:14;;;;;;;1.50;1.40;;;7.40;99.90;;;;;;5117957;28;20218;-81
2020/12/04 08:12:00;;;;;;;1.30;1.20;;;7.40;99.90;;;;;;5114065;28;20176;-80
2020/12/04 08:14:29;;;;;;;2.03;1.40;;;7.40;99.90;;;;;;5106816;28;20181;-80
2020/12/04 08:16:57;;;;;;;1.47;1.37;;;7.40;99.90;;;;;;5099913;28;20177;-81
2020/12/04 08:19:31;;;;;;;2.50;1.53;;;7.30;99.90;;;;;;5113961;28;20181;-80
2020/12/04 08:21:58;;;;;;;1.50;1.33;;;7.40;99.90;;;;;;5109057;28;20669;-81
2020/12/04 08:24:25;;;;;;;2.33;1.70;;;7.30;99.90;;;;;;5103446;28;20186;-81
2020/12/04 08:27:06;;;;;;;1.70;1.57;;;7.40;99.90;;;;;;5110793;28;20212;-81
2020/12/04 08:29:33;;;;;;;1.70;1.60;;;7.40;99.90;;;;;;5116491;28;20650;-81
2020/12/04 08:32:22;;;;;;;3.53;1.40;;;7.50;99.90;;;;;;5113007;28;20205;-80
2020/12/04 08:34:49;;;;;;;1.50;1.40;;;7.60;99.90;;;;;;5101863;28;20538;-81
2020/12/04 08:37:17;;;;;;;2.60;1.60;;;7.50;99.90;;;;;;5096773;28;20196;-75
2020/12/04 08:39:44;;;;;;;2.07;1.60;;;7.50;99.90;;;;;;5117426;28;20227;-81
2020/12/04 08:42:21;;;;;;;4.37;1.60;;;7.40;99.90;;;;;;5111780;28;20197;-81
2020/12/04 08:45:00;;;;;;;2.03;1.50;;;7.30;99.90;;;;;;5111826;27;20233;-81
2020/12/04 08:47:34;;;;;;;2.10;1.40;;;7.20;99.90;;;;;;5116590;28;20183;-80
2020/12/04 08:50:21;;;;;;;1.67;1.33;;;7.20;99.90;;;;;;5118603;28;20206;-81
2020/12/04 08:52:50;;;;;;;1.40;1.30;;;7.20;99.90;;;;;;5119182;28;20181;-81
2020/12/04 08:55:17;;;;;;;2.23;1.63;;;7.30;99.90;;;;;;5113512;28;20577;-80
2020/12/04 08:57:44;;;;;;;2.53;1.50;;;7.40;99.90;;;;;;5114018;28;20180;-82
2020/12/04 09:00:12;;;;;;;2.50;1.60;;;7.40;99.90;;;;;;5120212;28;20174;-82
2020/12/04 09:02:38;;;;;;;4.93;1.83;;;7.30;99.90;;;;;;5112442;28;20197;-79
2020/12/04 09:05:15;;;;;;;1.93;1.50;;;7.30;99.90;;;;;;5113143;28;20186;-78
2020/12/04 09:07:42;;;;;;;1.40;1.30;;;7.50;99.90;;;;;;5116591;28;20184;-79
2020/12/04 09:10:10;;;;;;;1.70;1.60;;;7.60;99.90;;;;;;5116189;28;20207;-78
2020/12/04 09:12:36;;;;;;;2.00;1.40;;;7.70;99.90;;;;;;5117273;28;20211;-78
2020/12/04 09:15:03;;;;;;;4.57;1.57;;;7.70;99.90;;;;;;5115206;28;20215;-79
2020/12/04 09:17:29;;;;;;;1.47;1.37;;;7.70;99.90;;;;;;5115504;28;20180;-80
2020/12/04 09:19:56;;;;;;;1.10;1.10;;;7.70;99.90;;;;;;5115205;28;20544;-80
2020/12/04 09:22:21;;;;;;;2.67;1.43;;;7.50;99.90;;;;;;5115266;28;20206;-81
2020/12/04 09:25:10;;;;;;;1.43;1.33;;;7.50;99.90;;;;;;5115992;28;20217;-82
2020/12/04 09:27:38;;;;;;;1.60;1.40;;;7.30;99.90;;;;;;5115264;28;20204;-81
2020/12/04 09:30:05;;;;;;;2.70;1.20;;;7.00;99.90;;;;;;5119007;28;20699;-81
2020/12/04 09:32:31;;;;;;;1.50;1.40;;;6.90;99.90;;;;;;5124248;28;20202;-81
2020/12/04 09:34:57;;;;;;;1.50;1.40;;;7.00;99.90;;;;;;5122754;28;20651;-82
2020/12/04 09:37:31;;;;;;;1.57;1.40;;;6.90;99.90;;;;;;5101668;28;20200;-82
2020/12/04 09:39:58;;;;;;;1.57;1.47;;;6.90;99.90;;;;;;5114383;28;20162;-79
2020/12/04 09:42:25;;;;;;;1.93;1.80;;;6.90;99.90;;;;;;5129773;28;20184;-79
2020/12/04 09:44:53;;;;;;;2.80;1.33;;;7.00;99.90;;;;;;5126875;28;20186;-79
2020/12/04 09:47:21;;;;;;;3.37;1.50;;;7.10;99.90;;;;;;5127205;28;20223;-81
2020/12/04 09:49:47;;;;;;;1.53;1.43;;;7.10;99.90;;;;;;5129073;28;20673;-81
2020/12/04 09:52:14;;;;;;;1.50;1.40;;;7.20;99.90;;;;;;5126822;28;20185;-78
2020/12/04 09:54:43;;;;;;;2.93;1.40;;;7.30;99.90;;;;;;5127028;28;20248;-81
2020/12/04 09:57:10;;;;;;;1.50;1.40;;;7.20;99.90;;;;;;5121473;28;20631;-82
2020/12/04 09:59:36;;;;;;;1.37;1.20;;;7.30;99.90;;;;;;5125463;28;20178;-81
2020/12/04 10:02:04;;;;;;;1.47;1.40;;;7.30;99.90;;;;;;5119864;28;20197;-83
2020/12/04 10:04:30;;;;;;;1.53;1.40;;;7.40;99.90;;;;;;5104058;28;20241;-81
2020/12/04 10:06:55;;;;;;;1.60;1.50;;;7.40;99.90;;;;;;5098770;28;20181;-81
2020/12/04 10:09:22;;;;;;;1.40;1.30;;;7.40;99.90;;;;;;5120838;27;20208;-81
2020/12/04 10:11:48;;;;;;;2.10;1.67;;;7.40;99.90;;;;;;5101878;28;20225;-80
2020/12/04 10:14:15;;;;;;;2.60;1.83;;;7.40;99.90;;;;;;5104802;28;20697;-81
2020/12/04 10:16:46;;;;;;;1.90;1.80;;;7.30;99.90;;;;;;5101602;28;20178;-81
2020/12/04 10:19:13;;;;;;;1.93;1.83;;;7.40;99.90;;;;;;5123192;28;20628;-82
2020/12/04 10:21:39;;;;;;;2.20;1.83;;;7.50;99.90;;;;;;5122587;28;20192;-81
2020/12/04 10:24:06;;;;;;;2.30;2.00;;;7.60;99.90;;;;;;5121267;28;20191;-82
2020/12/04 10:26:40;;;;;;;3.80;2.27;;;7.50;99.90;;;;;;5120266;28;20190;-82
2020/12/04 10:29:06;;;;;;;1.87;1.77;;;7.60;99.90;;;;;;5111500;28;20190;-81
2020/12/04 10:31:33;;;;;;;2.10;1.93;;;7.70;99.90;;;;;;5115176;28;20669;-81
2020/12/04 10:33:59;;;;;;;2.10;2.00;;;7.90;99.90;;;;;;5121683;28;20178;-81
2020/12/04 10:36:29;;;;;;;2.20;2.10;;;8.00;99.90;;;;;;5109818;28;20210;-82
2020/12/04 10:38:55;;;;;;;3.37;2.60;;;8.10;99.90;;;;;;5120902;28;20533;-81
2020/12/04 10:41:21;;;;;;;2.43;2.23;;;8.00;99.90;;;;;;5118174;28;20186;-81
2020/12/04 10:43:48;;;;;;;2.80;2.60;;;8.00;99.90;;;;;;5116733;28;20589;-81
2020/12/04 10:46:14;;;;;;;3.40;2.73;;;8.20;99.90;;;;;;5113793;28;20238;-81
2020/12/04 10:48:40;;;;;;;3.83;2.90;;;8.20;99.90;;;;;;5108010;28;20193;-82
2020/12/04 10:51:06;;;;;;;3.40;2.93;;;8.30;99.90;;;;;;5117833;28;20201;-81
2020/12/04 10:53:32;;;;;;;3.20;2.93;;;8.20;99.90;;;;;;5100416;28;20173;-81
2020/12/04 10:55:57;;;;;;;5.30;3.13;;;8.10;99.90;;;;;;5117912;28;20189;-79
2020/12/04 10:58:23;;;;;;;3.10;2.90;;;8.00;99.90;;;;;;5114758;28;20553;-79
2020/12/04 11:00:50;;;;;;;2.63;2.43;;;8.10;99.90;;;;;;5115778;28;20690;-80
2020/12/04 11:05:57;;;;;;;2.90;2.50;;;7.80;99.90;;;;;;5114581;28;20659;-80
2020/12/04 11:08:23;;;;;;;2.03;1.80;;;7.60;99.90;;;;;;5108891;28;20193;-80
2020/12/04 11:10:49;;;;;;;4.47;2.40;;;7.40;99.90;;;;;;5094623;28;20244;-81
2020/12/04 11:13:14;;;;;;;3.67;2.63;;;7.40;99.90;;;;;;5094948;28;20214;-80
2020/12/04 11:15:40;;;;;;;3.80;1.90;;;7.40;99.90;;;;;;5118146;28;20190;-80
2020/12/04 11:18:06;;;;;;;3.93;1.90;;;7.40;99.90;;;;;;5099448;28;20192;-80
2020/12/04 11:20:31;;;;;;;2.10;1.90;;;7.50;99.90;;;;;;5108132;28;20218;-79
2020/12/04 11:22:57;;;;;;;2.10;1.70;;;7.50;99.90;;;;;;5116069;28;20197;-78
2020/12/04 11:25:23;;;;;;;1.70;1.60;;;7.50;99.90;;;;;;5113873;27;20194;-80
2020/12/04 11:27:50;;;;;;;1.80;1.60;;;7.60;99.90;;;;;;5096059;28;20197;-79
2020/12/04 11:30:18;;;;;;;1.73;1.63;;;7.70;99.90;;;;;;5109203;28;20205;-79
2020/12/04 11:32:45;;;;;;;2.40;1.90;;;7.60;99.90;;;;;;5106036;28;20192;-80
2020/12/04 11:35:12;;;;;;;2.03;1.93;;;7.60;99.90;;;;;;5108488;28;20539;-79
2020/12/04 11:37:39;;;;;;;3.17;1.80;;;7.70;99.90;;;;;;5113954;28;20180;-78
2020/12/04 11:40:07;;;;;;;1.63;1.50;;;7.60;99.90;;;;;;5110339;28;20664;-78
2020/12/04 11:42:33;;;;;;;1.53;1.43;;;7.60;99.90;;;;;;5103726;28;20551;-78
2020/12/04 11:44:58;;;;;;;1.50;1.40;;;7.50;99.90;;;;;;5103632;28;20197;-79
2020/12/04 11:47:28;;;;;;;3.57;1.60;;;7.60;99.90;;;;;;5104714;28;20214;-78
2020/12/04 11:49:54;;;;;;;1.50;1.40;;;7.40;99.90;;;;;;5114741;28;20229;-79
2020/12/04 11:52:20;;;;;;;1.47;1.37;;;7.50;99.90;;;;;;5107402;28;20279;-82
2020/12/04 11:54:46;;;;;;;1.60;1.50;;;7.40;99.90;;;;;;5097685;28;20182;-80
2020/12/04 11:57:12;;;;;;;1.60;1.40;;;7.40;99.90;;;;;;5101340;28;20182;-80
2020/12/04 11:59:38;;;;;;;2.27;1.37;;;7.60;99.90;;;;;;5109615;28;20203;-79
2020/12/04 12:02:05;;;;;;;2.13;1.47;;;7.80;99.90;;;;;;5121373;28;20186;-80
2020/12/04 12:04:31;;;;;;;2.13;1.50;;;8.00;99.90;;;;;;5118348;28;20177;-79
2020/12/04 12:06:56;;;;;;;1.40;1.30;;;7.90;99.90;;;;;;5106371;28;20694;-79
2020/12/04 12:09:22;;;;;;;1.73;1.40;;;7.70;99.90;;;;;;5100242;28;20262;-80
2020/12/04 12:11:48;;;;;;;1.70;1.60;;;7.80;99.90;;;;;;5109784;28;20654;-79
2020/12/04 12:14:13;;;;;;;1.67;1.50;;;7.80;99.90;;;;;;5113488;28;20204;-79
2020/12/04 12:16:43;;;;;;;1.50;1.40;;;7.90;99.90;;;;;;5113269;28;20189;-78
2020/12/04 12:19:08;;;;;;;4.07;1.67;;;7.90;99.90;;;;;;5115317;28;20518;-80
2020/12/04 12:21:36;;;;;;;1.53;1.43;;;7.90;99.90;;;;;;5114310;28;20191;-80
2020/12/04 12:24:01;;;;;;;2.20;1.43;;;7.90;99.90;;;;;;5110526;28;20306;-79
2020/12/04 12:26:46;;;;;;;1.30;1.20;;;7.90;99.90;;;;;;5114176;28;20197;-80
2020/12/04 12:29:12;;;;;;;2.93;1.50;;;7.70;99.90;;;;;;5117959;27;20205;-80
2020/12/04 12:31:39;;;;;;;3.63;1.60;;;7.60;99.90;;;;;;5081590;28;20181;-80
2020/12/04 12:34:08;;;;;;;1.60;1.40;;;7.70;99.90;;;;;;5105713;28;20652;-81
2020/12/04 12:36:34;;;;;;;1.93;1.70;;;7.70;99.90;;;;;;5113161;28;20184;-80
2020/12/04 12:38:59;;;;;;;1.90;1.70;;;7.80;99.90;;;;;;5112535;28;20541;-80
2020/12/04 12:41:25;;;;;;;2.87;1.50;;;7.80;99.90;;;;;;5107517;28;20199;-79
2020/12/04 12:43:51;;;;;;;1.57;1.40;;;7.80;99.90;;;;;;5117020;27;20186;-80
2020/12/04 12:46:16;;;;;;;2.23;1.57;;;8.00;99.90;;;;;;5098714;28;20271;-80
2020/12/04 12:48:43;;;;;;;2.53;1.70;;;7.90;99.90;;;;;;5118991;28;20192;-80
2020/12/04 12:51:09;;;;;;;1.90;1.70;;;7.90;99.90;;;;;;5106886;28;20208;-80
2020/12/04 12:53:35;;;;;;;3.23;1.30;;;7.80;99.90;;;;;;5112302;28;20245;-79
2020/12/04 12:56:00;;;;;;;3.27;1.50;;;7.60;99.90;;;;;;5107987;28;20189;-80
2020/12/04 12:58:26;;;;;;;3.40;1.70;;;7.50;99.90;;;;;;5094192;28;20178;-81
2020/12/04 13:00:52;;;;;;;2.17;1.40;;;7.50;99.90;;;;;;5088307;28;20247;-79
2020/12/04 13:03:18;;;;;;;2.87;1.60;;;7.50;99.90;;;;;;5085510;28;20197;-79
2020/12/04 13:05:44;;;;;;;2.23;1.70;;;7.50;99.90;;;;;;5114259;28;20188;-79
2020/12/04 13:08:10;;;;;;;1.97;1.63;;;7.50;99.90;;;;;;5113619;28;20491;-80